Moro, Arkansas
Current Conditions -  °F | °C
As of 2:15 PM on Sunday 25 Jan 2015 (Local Time) from KSGT Reporting Station
Overcast Overcast  
Wind Chill: 57°   Ceiling: 8000
Heat Index: 57°   Visibility: 10mi
Dew Point: 37°   Wind: 23mph
Humidity: 48%   Direction: 290°WNW
Pressure: 29.74"   Gusts: 29mph
Location:  34.8°N, 90.99°W
Report Text: KSGT 252015Z AUTO 29020G25KT 10SM SCT065 OVC080 14/03 A2974 RMK AO1
Loading
Personal Weather Stations






























Interactive Weather Map New forecast layout! Learn more

10-Day Weather Forecast

Advertisements
Track Severe Weather on mobile